sensor_id;sensor_type;location;lat;lon;timestamp;P1;durP1;ratioP1;P2;durP2;ratioP2
45326;SDS011;31062;49.678;24.560;2022-07-21T00:02:23;5.85;;;3.60;;
45326;SDS011;31062;49.678;24.560;2022-07-21T00:05:09;7.25;;;4.22;;
45326;SDS011;31062;49.678;24.560;2022-07-21T00:07:54;6.53;;;3.15;;
45326;SDS011;31062;49.678;24.560;2022-07-21T00:10:40;5.43;;;3.40;;
45326;SDS011;31062;49.678;24.560;2022-07-21T00:13:26;3.58;;;3.13;;
45326;SDS011;31062;49.678;24.560;2022-07-21T00:16:12;4.25;;;3.20;;
45326;SDS011;31062;49.678;24.560;2022-07-21T00:19:03;2.85;;;2.65;;
45326;SDS011;31062;49.678;24.560;2022-07-21T00:21:49;5.60;;;2.80;;
45326;SDS011;31062;49.678;24.560;2022-07-21T00:24:35;6.85;;;3.13;;
45326;SDS011;31062;49.678;24.560;2022-07-21T00:27:20;6.63;;;3.17;;
45326;SDS011;31062;49.678;24.560;2022-07-21T00:30:07;3.58;;;2.67;;
45326;SDS011;31062;49.678;24.560;2022-07-21T00:32:53;3.88;;;3.13;;
45326;SDS011;31062;49.678;24.560;2022-07-21T00:35:39;5.68;;;3.20;;
45326;SDS011;31062;49.678;24.560;2022-07-21T00:38:24;9.38;;;2.90;;
45326;SDS011;31062;49.678;24.560;2022-07-21T00:41:09;3.13;;;2.83;;
45326;SDS011;31062;49.678;24.560;2022-07-21T00:43:55;3.35;;;2.97;;
45326;SDS011;31062;49.678;24.560;2022-07-21T00:46:40;6.55;;;3.10;;
45326;SDS011;31062;49.678;24.560;2022-07-21T00:49:26;3.35;;;2.85;;
45326;SDS011;31062;49.678;24.560;2022-07-21T00:52:12;4.60;;;3.15;;
45326;SDS011;31062;49.678;24.560;2022-07-21T00:54:57;7.03;;;2.95;;
45326;SDS011;31062;49.678;24.560;2022-07-21T00:57:44;3.40;;;2.72;;
45326;SDS011;31062;49.678;24.560;2022-07-21T01:00:30;4.10;;;3.35;;
45326;SDS011;31062;49.678;24.560;2022-07-21T01:06:08;4.93;;;2.90;;
45326;SDS011;31062;49.678;24.560;2022-07-21T01:08:54;4.70;;;2.88;;
45326;SDS011;31062;49.678;24.560;2022-07-21T01:11:45;2.95;;;2.75;;
45326;SDS011;31062;49.678;24.560;2022-07-21T01:14:31;6.10;;;2.60;;
45326;SDS011;31062;49.678;24.560;2022-07-21T01:17:17;3.25;;;2.60;;
45326;SDS011;31062;49.678;24.560;2022-07-21T01:20:04;3.40;;;2.53;;
45326;SDS011;31062;49.678;24.560;2022-07-21T01:22:56;9.80;;;2.47;;
45326;SDS011;31062;49.678;24.560;2022-07-21T01:25:46;3.33;;;2.55;;
45326;SDS011;31062;49.678;24.560;2022-07-21T01:28:35;6.43;;;2.80;;
45326;SDS011;31062;49.678;24.560;2022-07-21T01:31:21;2.67;;;2.47;;
45326;SDS011;31062;49.678;24.560;2022-07-21T01:34:07;3.58;;;2.42;;
45326;SDS011;31062;49.678;24.560;2022-07-21T01:36:53;3.63;;;2.35;;
45326;SDS011;31062;49.678;24.560;2022-07-21T01:39:38;3.70;;;2.13;;
45326;SDS011;31062;49.678;24.560;2022-07-21T01:42:42;3.20;;;2.33;;
45326;SDS011;31062;49.678;24.560;2022-07-21T01:45:28;5.65;;;2.08;;
45326;SDS011;31062;49.678;24.560;2022-07-21T01:48:14;3.20;;;2.50;;
45326;SDS011;31062;49.678;24.560;2022-07-21T01:50:59;4.00;;;2.53;;
45326;SDS011;31062;49.678;24.560;2022-07-21T01:53:45;3.13;;;2.50;;
45326;SDS011;31062;49.678;24.560;2022-07-21T01:56:30;3.63;;;2.33;;
45326;SDS011;31062;49.678;24.560;2022-07-21T01:59:16;3.92;;;2.30;;
45326;SDS011;31062;49.678;24.560;2022-07-21T02:02:01;3.17;;;2.38;;
45326;SDS011;31062;49.678;24.560;2022-07-21T02:04:50;2.40;;;2.20;;
45326;SDS011;31062;49.678;24.560;2022-07-21T02:07:35;3.72;;;2.42;;
45326;SDS011;31062;49.678;24.560;2022-07-21T02:10:20;6.05;;;2.83;;
45326;SDS011;31062;49.678;24.560;2022-07-21T02:13:06;3.00;;;2.42;;
45326;SDS011;31062;49.678;24.560;2022-07-21T02:15:51;4.15;;;2.65;;
45326;SDS011;31062;49.678;24.560;2022-07-21T02:18:37;4.63;;;2.80;;
45326;SDS011;31062;49.678;24.560;2022-07-21T02:21:23;4.07;;;2.65;;
45326;SDS011;31062;49.678;24.560;2022-07-21T02:24:08;3.95;;;3.30;;
45326;SDS011;31062;49.678;24.560;2022-07-21T02:26:54;3.13;;;2.58;;
45326;SDS011;31062;49.678;24.560;2022-07-21T02:29:39;2.45;;;2.25;;
45326;SDS011;31062;49.678;24.560;2022-07-21T02:32:25;5.70;;;2.58;;
45326;SDS011;31062;49.678;24.560;2022-07-21T02:35:10;4.95;;;2.47;;
45326;SDS011;31062;49.678;24.560;2022-07-21T02:37:55;4.63;;;2.20;;
45326;SDS011;31062;49.678;24.560;2022-07-21T02:40:41;3.95;;;2.88;;
45326;SDS011;31062;49.678;24.560;2022-07-21T02:43:26;5.55;;;2.83;;
45326;SDS011;31062;49.678;24.560;2022-07-21T02:46:11;4.97;;;2.78;;
45326;SDS011;31062;49.678;24.560;2022-07-21T02:48:58;3.78;;;2.80;;
45326;SDS011;31062;49.678;24.560;2022-07-21T02:51:43;3.78;;;2.50;;
45326;SDS011;31062;49.678;24.560;2022-07-21T02:54:29;3.00;;;2.42;;
45326;SDS011;31062;49.678;24.560;2022-07-21T02:57:14;5.40;;;3.08;;
45326;SDS011;31062;49.678;24.560;2022-07-21T03:00:00;4.13;;;2.30;;
45326;SDS011;31062;49.678;24.560;2022-07-21T03:02:46;2.53;;;2.33;;
45326;SDS011;31062;49.678;24.560;2022-07-21T03:05:31;3.17;;;2.55;;
45326;SDS011;31062;49.678;24.560;2022-07-21T03:08:18;4.35;;;2.60;;
45326;SDS011;31062;49.678;24.560;2022-07-21T03:11:05;2.30;;;2.10;;
45326;SDS011;31062;49.678;24.560;2022-07-21T03:13:52;2.40;;;2.20;;
45326;SDS011;31062;49.678;24.560;2022-07-21T03:16:37;2.97;;;2.20;;
45326;SDS011;31062;49.678;24.560;2022-07-21T03:19:23;3.80;;;2.38;;
45326;SDS011;31062;49.678;24.560;2022-07-21T03:22:08;2.30;;;2.10;;
45326;SDS011;31062;49.678;24.560;2022-07-21T03:24:53;5.25;;;2.40;;
45326;SDS011;31062;49.678;24.560;2022-07-21T03:27:39;4.00;;;2.25;;
45326;SDS011;31062;49.678;24.560;2022-07-21T03:30:25;2.58;;;2.38;;
45326;SDS011;31062;49.678;24.560;2022-07-21T03:33:11;5.45;;;2.17;;
45326;SDS011;31062;49.678;24.560;2022-07-21T03:35:57;3.33;;;2.35;;
45326;SDS011;31062;49.678;24.560;2022-07-21T03:38:45;2.63;;;2.00;;
45326;SDS011;31062;49.678;24.560;2022-07-21T03:41:31;2.35;;;2.15;;
45326;SDS011;31062;49.678;24.560;2022-07-21T03:44:16;2.65;;;2.10;;
45326;SDS011;31062;49.678;24.560;2022-07-21T03:47:02;2.75;;;2.28;;
45326;SDS011;31062;49.678;24.560;2022-07-21T03:49:48;3.65;;;2.28;;
45326;SDS011;31062;49.678;24.560;2022-07-21T03:52:33;6.50;;;2.83;;
45326;SDS011;31062;49.678;24.560;2022-07-21T03:55:19;2.88;;;2.58;;
45326;SDS011;31062;49.678;24.560;2022-07-21T03:58:05;3.72;;;2.17;;
45326;SDS011;31062;49.678;24.560;2022-07-21T04:00:51;4.35;;;2.42;;
45326;SDS011;31062;49.678;24.560;2022-07-21T04:03:37;2.97;;;2.60;;
45326;SDS011;31062;49.678;24.560;2022-07-21T04:06:22;4.47;;;2.63;;
45326;SDS011;31062;49.678;24.560;2022-07-21T04:09:08;5.53;;;2.80;;
45326;SDS011;31062;49.678;24.560;2022-07-21T04:11:53;4.43;;;2.53;;
45326;SDS011;31062;49.678;24.560;2022-07-21T04:14:39;5.85;;;2.80;;
45326;SDS011;31062;49.678;24.560;2022-07-21T04:17:24;5.25;;;3.05;;
45326;SDS011;31062;49.678;24.560;2022-07-21T04:20:10;4.93;;;2.83;;
45326;SDS011;31062;49.678;24.560;2022-07-21T04:22:57;4.28;;;3.08;;
45326;SDS011;31062;49.678;24.560;2022-07-21T04:25:42;5.72;;;3.25;;
45326;SDS011;31062;49.678;24.560;2022-07-21T04:28:28;4.15;;;3.05;;
45326;SDS011;31062;49.678;24.560;2022-07-21T04:31:13;4.80;;;2.92;;
45326;SDS011;31062;49.678;24.560;2022-07-21T04:33:58;8.15;;;3.13;;
45326;SDS011;31062;49.678;24.560;2022-07-21T04:36:44;4.97;;;2.80;;
45326;SDS011;31062;49.678;24.560;2022-07-21T04:39:30;3.58;;;2.97;;
45326;SDS011;31062;49.678;24.560;2022-07-21T04:42:15;5.82;;;3.20;;
45326;SDS011;31062;49.678;24.560;2022-07-21T04:45:05;3.33;;;3.03;;
45326;SDS011;31062;49.678;24.560;2022-07-21T04:47:54;4.22;;;3.60;;
45326;SDS011;31062;49.678;24.560;2022-07-21T04:50:40;3.72;;;3.30;;
45326;SDS011;31062;49.678;24.560;2022-07-21T04:53:25;5.35;;;3.88;;
45326;SDS011;31062;49.678;24.560;2022-07-21T04:56:11;3.55;;;3.25;;
45326;SDS011;31062;49.678;24.560;2022-07-21T04:58:56;5.50;;;3.40;;
45326;SDS011;31062;49.678;24.560;2022-07-21T05:01:43;3.53;;;2.65;;
45326;SDS011;31062;49.678;24.560;2022-07-21T05:04:29;6.90;;;3.00;;
45326;SDS011;31062;49.678;24.560;2022-07-21T05:07:15;7.18;;;3.03;;
45326;SDS011;31062;49.678;24.560;2022-07-21T05:10:05;6.55;;;3.33;;
45326;SDS011;31062;49.678;24.560;2022-07-21T05:12:52;6.03;;;3.00;;
45326;SDS011;31062;49.678;24.560;2022-07-21T05:15:38;6.38;;;3.33;;
45326;SDS011;31062;49.678;24.560;2022-07-21T05:18:23;8.18;;;3.20;;
45326;SDS011;31062;49.678;24.560;2022-07-21T05:21:08;3.30;;;2.97;;
45326;SDS011;31062;49.678;24.560;2022-07-21T05:23:54;4.00;;;3.03;;
45326;SDS011;31062;49.678;24.560;2022-07-21T05:26:40;5.38;;;3.03;;
45326;SDS011;31062;49.678;24.560;2022-07-21T05:29:27;3.00;;;2.60;;
45326;SDS011;31062;49.678;24.560;2022-07-21T05:32:12;3.33;;;2.97;;
45326;SDS011;31062;49.678;24.560;2022-07-21T05:34:59;5.28;;;2.80;;
45326;SDS011;31062;49.678;24.560;2022-07-21T05:37:47;6.70;;;2.72;;
45326;SDS011;31062;49.678;24.560;2022-07-21T05:40:34;5.28;;;2.97;;
45326;SDS011;31062;49.678;24.560;2022-07-21T05:43:21;4.55;;;3.13;;
45326;SDS011;31062;49.678;24.560;2022-07-21T05:46:07;4.03;;;3.00;;
45326;SDS011;31062;49.678;24.560;2022-07-21T05:48:54;9.88;;;3.38;;
45326;SDS011;31062;49.678;24.560;2022-07-21T05:51:40;4.47;;;2.90;;
45326;SDS011;31062;49.678;24.560;2022-07-21T05:54:26;4.00;;;2.80;;
45326;SDS011;31062;49.678;24.560;2022-07-21T05:57:12;4.60;;;3.63;;
45326;SDS011;31062;49.678;24.560;2022-07-21T05:59:57;2.95;;;2.60;;
45326;SDS011;31062;49.678;24.560;2022-07-21T06:02:44;8.57;;;2.90;;
45326;SDS011;31062;49.678;24.560;2022-07-21T06:05:30;9.18;;;3.17;;
45326;SDS011;31062;49.678;24.560;2022-07-21T06:08:15;5.93;;;2.75;;
45326;SDS011;31062;49.678;24.560;2022-07-21T06:11:01;2.97;;;2.65;;
45326;SDS011;31062;49.678;24.560;2022-07-21T06:13:47;3.03;;;2.58;;
45326;SDS011;31062;49.678;24.560;2022-07-21T06:16:32;5.68;;;2.63;;
45326;SDS011;31062;49.678;24.560;2022-07-21T06:19:18;3.00;;;2.70;;
45326;SDS011;31062;49.678;24.560;2022-07-21T06:22:04;3.97;;;2.70;;
45326;SDS011;31062;49.678;24.560;2022-07-21T06:24:50;7.03;;;2.75;;
45326;SDS011;31062;49.678;24.560;2022-07-21T06:27:36;6.25;;;2.60;;
45326;SDS011;31062;49.678;24.560;2022-07-21T06:30:22;3.00;;;2.45;;
45326;SDS011;31062;49.678;24.560;2022-07-21T06:33:07;4.75;;;2.05;;
45326;SDS011;31062;49.678;24.560;2022-07-21T06:35:52;5.50;;;2.03;;
45326;SDS011;31062;49.678;24.560;2022-07-21T06:38:38;2.95;;;2.30;;
45326;SDS011;31062;49.678;24.560;2022-07-21T06:41:24;7.35;;;2.35;;
45326;SDS011;31062;49.678;24.560;2022-07-21T06:44:09;3.78;;;1.85;;
45326;SDS011;31062;49.678;24.560;2022-07-21T06:46:55;2.67;;;2.17;;
45326;SDS011;31062;49.678;24.560;2022-07-21T06:49:40;3.28;;;2.28;;
45326;SDS011;31062;49.678;24.560;2022-07-21T06:52:26;2.35;;;2.15;;
45326;SDS011;31062;49.678;24.560;2022-07-21T06:55:11;6.13;;;2.10;;
45326;SDS011;31062;49.678;24.560;2022-07-21T06:57:57;1.73;;;1.63;;
45326;SDS011;31062;49.678;24.560;2022-07-21T07:00:43;2.75;;;1.73;;
45326;SDS011;31062;49.678;24.560;2022-07-21T07:03:31;2.72;;;1.65;;
45326;SDS011;31062;49.678;24.560;2022-07-21T07:06:20;1.98;;;1.73;;
45326;SDS011;31062;49.678;24.560;2022-07-21T07:09:07;4.72;;;1.75;;
45326;SDS011;31062;49.678;24.560;2022-07-21T07:11:53;3.95;;;2.10;;
45326;SDS011;31062;49.678;24.560;2022-07-21T07:15:00;2.53;;;2.05;;
45326;SDS011;31062;49.678;24.560;2022-07-21T07:17:47;5.30;;;1.60;;
45326;SDS011;31062;49.678;24.560;2022-07-21T07:20:33;3.42;;;2.03;;
45326;SDS011;31062;49.678;24.560;2022-07-21T07:23:19;5.75;;;2.50;;
45326;SDS011;31062;49.678;24.560;2022-07-21T07:26:04;2.40;;;2.10;;
45326;SDS011;31062;49.678;24.560;2022-07-21T07:28:50;1.70;;;1.60;;
45326;SDS011;31062;49.678;24.560;2022-07-21T07:31:36;1.67;;;1.23;;
45326;SDS011;31062;49.678;24.560;2022-07-21T07:34:22;3.20;;;1.65;;
45326;SDS011;31062;49.678;24.560;2022-07-21T07:37:08;3.15;;;1.40;;
45326;SDS011;31062;49.678;24.560;2022-07-21T07:39:53;4.03;;;1.50;;
45326;SDS011;31062;49.678;24.560;2022-07-21T07:42:39;3.72;;;1.58;;
45326;SDS011;31062;49.678;24.560;2022-07-21T07:45:25;7.20;;;1.58;;
45326;SDS011;31062;49.678;24.560;2022-07-21T07:48:11;1.42;;;1.20;;
45326;SDS011;31062;49.678;24.560;2022-07-21T07:50:57;3.38;;;1.38;;
45326;SDS011;31062;49.678;24.560;2022-07-21T07:53:42;1.70;;;1.10;;
45326;SDS011;31062;49.678;24.560;2022-07-21T07:56:31;1.27;;;1.13;;
45326;SDS011;31062;49.678;24.560;2022-07-21T07:59:17;5.22;;;1.20;;
45326;SDS011;31062;49.678;24.560;2022-07-21T08:02:03;3.15;;;1.08;;
45326;SDS011;31062;49.678;24.560;2022-07-21T08:04:49;3.20;;;1.30;;
45326;SDS011;31062;49.678;24.560;2022-07-21T08:07:35;3.60;;;1.15;;
45326;SDS011;31062;49.678;24.560;2022-07-21T08:10:23;4.32;;;1.50;;
45326;SDS011;31062;49.678;24.560;2022-07-21T08:13:27;2.92;;;1.45;;
45326;SDS011;31062;49.678;24.560;2022-07-21T08:16:12;8.07;;;1.50;;
45326;SDS011;31062;49.678;24.560;2022-07-21T08:19:01;3.25;;;1.23;;
45326;SDS011;31062;49.678;24.560;2022-07-21T08:21:46;4.05;;;1.15;;
45326;SDS011;31062;49.678;24.560;2022-07-21T08:24:52;5.40;;;1.33;;
45326;SDS011;31062;49.678;24.560;2022-07-21T08:27:37;4.70;;;1.55;;
45326;SDS011;31062;49.678;24.560;2022-07-21T08:30:24;2.08;;;1.17;;
45326;SDS011;31062;49.678;24.560;2022-07-21T08:33:15;5.85;;;1.05;;
45326;SDS011;31062;49.678;24.560;2022-07-21T08:36:00;3.47;;;1.08;;
45326;SDS011;31062;49.678;24.560;2022-07-21T08:38:46;0.93;;;0.88;;
45326;SDS011;31062;49.678;24.560;2022-07-21T08:41:32;4.93;;;1.10;;
45326;SDS011;31062;49.678;24.560;2022-07-21T08:44:20;5.20;;;1.25;;
45326;SDS011;31062;49.678;24.560;2022-07-21T08:47:05;0.95;;;0.80;;
45326;SDS011;31062;49.678;24.560;2022-07-21T08:49:52;3.63;;;1.05;;
45326;SDS011;31062;49.678;24.560;2022-07-21T08:52:38;4.20;;;0.90;;
45326;SDS011;31062;49.678;24.560;2022-07-21T08:55:23;1.05;;;0.80;;
45326;SDS011;31062;49.678;24.560;2022-07-21T08:58:10;2.47;;;1.10;;
45326;SDS011;31062;49.678;24.560;2022-07-21T09:00:57;4.47;;;0.75;;
45326;SDS011;31062;49.678;24.560;2022-07-21T09:03:43;4.60;;;1.20;;
45326;SDS011;31062;49.678;24.560;2022-07-21T09:06:29;1.10;;;0.88;;
45326;SDS011;31062;49.678;24.560;2022-07-21T09:09:18;1.95;;;0.85;;
45326;SDS011;31062;49.678;24.560;2022-07-21T09:12:08;7.60;;;0.70;;
45326;SDS011;31062;49.678;24.560;2022-07-21T09:15:12;2.53;;;0.80;;
45326;SDS011;31062;49.678;24.560;2022-07-21T09:24:13;1.15;;;0.70;;
45326;SDS011;31062;49.678;24.560;2022-07-21T09:27:22;1.73;;;0.57;;
45326;SDS011;31062;49.678;24.560;2022-07-21T09:30:07;1.73;;;0.93;;
45326;SDS011;31062;49.678;24.560;2022-07-21T09:32:55;3.05;;;1.92;;
45326;SDS011;31062;49.678;24.560;2022-07-21T09:35:50;0.47;;;0.47;;
45326;SDS011;31062;49.678;24.560;2022-07-21T09:38:51;3.13;;;0.60;;
45326;SDS011;31062;49.678;24.560;2022-07-21T09:41:43;1.35;;;0.70;;
45326;SDS011;31062;49.678;24.560;2022-07-21T09:44:30;5.78;;;0.80;;
45326;SDS011;31062;49.678;24.560;2022-07-21T09:47:18;3.30;;;0.65;;
45326;SDS011;31062;49.678;24.560;2022-07-21T09:50:06;0.50;;;0.50;;
45326;SDS011;31062;49.678;24.560;2022-07-21T09:53:09;0.85;;;0.82;;
45326;SDS011;31062;49.678;24.560;2022-07-21T09:55:54;5.45;;;0.70;;
45326;SDS011;31062;49.678;24.560;2022-07-21T09:58:40;2.13;;;0.80;;
45326;SDS011;31062;49.678;24.560;2022-07-21T10:01:27;1.67;;;1.05;;
45326;SDS011;31062;49.678;24.560;2022-07-21T10:04:14;6.47;;;0.93;;
45326;SDS011;31062;49.678;24.560;2022-07-21T10:06:59;2.60;;;0.95;;
45326;SDS011;31062;49.678;24.560;2022-07-21T10:09:47;0.30;;;0.30;;
45326;SDS011;31062;49.678;24.560;2022-07-21T10:12:34;5.07;;;0.90;;
45326;SDS011;31062;49.678;24.560;2022-07-21T10:15:20;0.95;;;0.63;;
45326;SDS011;31062;49.678;24.560;2022-07-21T10:18:06;3.20;;;0.75;;
45326;SDS011;31062;49.678;24.560;2022-07-21T10:20:57;1.20;;;0.55;;
45326;SDS011;31062;49.678;24.560;2022-07-21T10:23:48;1.92;;;0.60;;
45326;SDS011;31062;49.678;24.560;2022-07-21T10:26:58;3.50;;;0.35;;
45326;SDS011;31062;49.678;24.560;2022-07-21T10:29:59;3.67;;;0.60;;
45326;SDS011;31062;49.678;24.560;2022-07-21T10:32:48;6.55;;;0.75;;
45326;SDS011;31062;49.678;24.560;2022-07-21T10:35:38;3.72;;;0.70;;
45326;SDS011;31062;49.678;24.560;2022-07-21T10:38:30;0.60;;;0.57;;
45326;SDS011;31062;49.678;24.560;2022-07-21T10:41:35;1.85;;;0.30;;
45326;SDS011;31062;49.678;24.560;2022-07-21T10:47:20;0.40;;;0.40;;
45326;SDS011;31062;49.678;24.560;2022-07-21T10:50:09;4.43;;;0.77;;
45326;SDS011;31062;49.678;24.560;2022-07-21T10:53:01;3.83;;;0.68;;
45326;SDS011;31062;49.678;24.560;2022-07-21T10:55:56;1.30;;;0.70;;
45326;SDS011;31062;49.678;24.560;2022-07-21T10:58:44;2.25;;;0.90;;
45326;SDS011;31062;49.678;24.560;2022-07-21T11:01:30;2.03;;;0.95;;
45326;SDS011;31062;49.678;24.560;2022-07-21T11:04:16;3.05;;;0.75;;
45326;SDS011;31062;49.678;24.560;2022-07-21T11:07:03;5.20;;;0.70;;
45326;SDS011;31062;49.678;24.560;2022-07-21T11:13:02;1.25;;;0.60;;
45326;SDS011;31062;49.678;24.560;2022-07-21T11:15:57;0.80;;;0.80;;
45326;SDS011;31062;49.678;24.560;2022-07-21T11:18:45;4.65;;;0.60;;
45326;SDS011;31062;49.678;24.560;2022-07-21T11:21:30;0.80;;;0.80;;
45326;SDS011;31062;49.678;24.560;2022-07-21T11:24:20;0.73;;;0.73;;
45326;SDS011;31062;49.678;24.560;2022-07-21T11:27:07;1.90;;;1.02;;
45326;SDS011;31062;49.678;24.560;2022-07-21T11:29:55;1.38;;;0.90;;
45326;SDS011;31062;49.678;24.560;2022-07-21T11:32:46;1.58;;;0.90;;
45326;SDS011;31062;49.678;24.560;2022-07-21T11:35:36;1.23;;;0.80;;
45326;SDS011;31062;49.678;24.560;2022-07-21T11:38:23;1.15;;;0.70;;
45326;SDS011;31062;49.678;24.560;2022-07-21T11:41:26;1.65;;;0.98;;
45326;SDS011;31062;49.678;24.560;2022-07-21T11:44:12;4.35;;;1.00;;
45326;SDS011;31062;49.678;24.560;2022-07-21T11:47:10;4.88;;;1.10;;
45326;SDS011;31062;49.678;24.560;2022-07-21T11:49:57;1.20;;;1.10;;
45326;SDS011;31062;49.678;24.560;2022-07-21T11:52:45;4.20;;;1.20;;
45326;SDS011;31062;49.678;24.560;2022-07-21T11:55:30;1.25;;;0.85;;
45326;SDS011;31062;49.678;24.560;2022-07-21T11:58:15;0.80;;;0.80;;
45326;SDS011;31062;49.678;24.560;2022-07-21T12:01:04;2.22;;;1.10;;
45326;SDS011;31062;49.678;24.560;2022-07-21T12:03:51;0.70;;;0.70;;
45326;SDS011;31062;49.678;24.560;2022-07-21T12:06:37;1.15;;;1.00;;
45326;SDS011;31062;49.678;24.560;2022-07-21T12:09:23;1.00;;;0.93;;
45326;SDS011;31062;49.678;24.560;2022-07-21T12:12:09;1.15;;;0.90;;
45326;SDS011;31062;49.678;24.560;2022-07-21T12:14:55;1.08;;;0.98;;
45326;SDS011;31062;49.678;24.560;2022-07-21T12:17:47;3.10;;;0.85;;
45326;SDS011;31062;49.678;24.560;2022-07-21T12:20:39;1.35;;;0.93;;
45326;SDS011;31062;49.678;24.560;2022-07-21T12:23:26;2.90;;;1.20;;
45326;SDS011;31062;49.678;24.560;2022-07-21T12:26:21;1.13;;;1.02;;
45326;SDS011;31062;49.678;24.560;2022-07-21T12:29:08;9.07;;;1.35;;
45326;SDS011;31062;49.678;24.560;2022-07-21T12:31:54;0.90;;;0.90;;
45326;SDS011;31062;49.678;24.560;2022-07-21T12:34:52;3.03;;;1.27;;
45326;SDS011;31062;49.678;24.560;2022-07-21T12:37:55;4.95;;;1.17;;
45326;SDS011;31062;49.678;24.560;2022-07-21T12:40:45;0.80;;;0.80;;
45326;SDS011;31062;49.678;24.560;2022-07-21T12:43:59;4.30;;;0.98;;
45326;SDS011;31062;49.678;24.560;2022-07-21T12:46:46;1.35;;;1.20;;
45326;SDS011;31062;49.678;24.560;2022-07-21T12:49:31;2.78;;;2.00;;
45326;SDS011;31062;49.678;24.560;2022-07-21T12:52:54;2.72;;;0.95;;
45326;SDS011;31062;49.678;24.560;2022-07-21T12:55:40;0.77;;;0.73;;
45326;SDS011;31062;49.678;24.560;2022-07-21T12:58:25;2.05;;;1.10;;
45326;SDS011;31062;49.678;24.560;2022-07-21T13:01:12;0.90;;;0.80;;
45326;SDS011;31062;49.678;24.560;2022-07-21T13:03:59;1.50;;;0.82;;
45326;SDS011;31062;49.678;24.560;2022-07-21T13:06:46;1.45;;;1.08;;
45326;SDS011;31062;49.678;24.560;2022-07-21T13:09:32;0.95;;;0.88;;
45326;SDS011;31062;49.678;24.560;2022-07-21T13:12:17;2.88;;;1.10;;
45326;SDS011;31062;49.678;24.560;2022-07-21T13:15:03;2.50;;;0.98;;
45326;SDS011;31062;49.678;24.560;2022-07-21T13:17:50;1.42;;;1.27;;
45326;SDS011;31062;49.678;24.560;2022-07-21T13:20:35;3.03;;;1.15;;
45326;SDS011;31062;49.678;24.560;2022-07-21T13:23:21;1.85;;;1.02;;
45326;SDS011;31062;49.678;24.560;2022-07-21T13:26:07;3.17;;;1.02;;
45326;SDS011;31062;49.678;24.560;2022-07-21T13:28:53;1.20;;;1.00;;
45326;SDS011;31062;49.678;24.560;2022-07-21T13:31:40;4.38;;;1.20;;
45326;SDS011;31062;49.678;24.560;2022-07-21T13:34:25;6.47;;;1.00;;
45326;SDS011;31062;49.678;24.560;2022-07-21T13:37:11;2.50;;;1.17;;
45326;SDS011;31062;49.678;24.560;2022-07-21T13:40:12;3.13;;;1.20;;
45326;SDS011;31062;49.678;24.560;2022-07-21T13:43:18;2.03;;;1.02;;
45326;SDS011;31062;49.678;24.560;2022-07-21T13:46:20;1.13;;;1.02;;
45326;SDS011;31062;49.678;24.560;2022-07-21T13:49:06;1.80;;;1.00;;
45326;SDS011;31062;49.678;24.560;2022-07-21T13:51:51;0.93;;;0.88;;
45326;SDS011;31062;49.678;24.560;2022-07-21T13:54:37;2.33;;;0.88;;
45326;SDS011;31062;49.678;24.560;2022-07-21T13:57:23;4.00;;;1.08;;
45326;SDS011;31062;49.678;24.560;2022-07-21T14:00:09;1.58;;;0.98;;
45326;SDS011;31062;49.678;24.560;2022-07-21T14:02:55;4.07;;;0.90;;
45326;SDS011;31062;49.678;24.560;2022-07-21T14:05:42;2.22;;;1.00;;
45326;SDS011;31062;49.678;24.560;2022-07-21T14:08:27;4.13;;;1.08;;
45326;SDS011;31062;49.678;24.560;2022-07-21T14:11:13;2.08;;;0.93;;
45326;SDS011;31062;49.678;24.560;2022-07-21T14:13:59;4.18;;;1.27;;
45326;SDS011;31062;49.678;24.560;2022-07-21T14:16:45;2.25;;;1.27;;
45326;SDS011;31062;49.678;24.560;2022-07-21T14:19:31;2.08;;;1.00;;
45326;SDS011;31062;49.678;24.560;2022-07-21T14:22:16;1.63;;;0.70;;
45326;SDS011;31062;49.678;24.560;2022-07-21T14:25:10;5.03;;;1.02;;
45326;SDS011;31062;49.678;24.560;2022-07-21T14:28:04;1.15;;;0.93;;
45326;SDS011;31062;49.678;24.560;2022-07-21T14:30:51;3.15;;;0.85;;
45326;SDS011;31062;49.678;24.560;2022-07-21T14:33:43;2.72;;;0.93;;
45326;SDS011;31062;49.678;24.560;2022-07-21T14:36:29;2.72;;;1.10;;
45326;SDS011;31062;49.678;24.560;2022-07-21T14:39:14;5.40;;;0.88;;
45326;SDS011;31062;49.678;24.560;2022-07-21T14:42:00;6.63;;;1.02;;
45326;SDS011;31062;49.678;24.560;2022-07-21T14:44:45;0.75;;;0.63;;
45326;SDS011;31062;49.678;24.560;2022-07-21T14:47:32;1.10;;;0.90;;
45326;SDS011;31062;49.678;24.560;2022-07-21T14:50:19;1.35;;;0.70;;
45326;SDS011;31062;49.678;24.560;2022-07-21T14:53:11;3.78;;;1.02;;
45326;SDS011;31062;49.678;24.560;2022-07-21T14:55:56;1.52;;;1.00;;
45326;SDS011;31062;49.678;24.560;2022-07-21T14:58:42;1.30;;;1.30;;
45326;SDS011;31062;49.678;24.560;2022-07-21T15:01:27;3.78;;;0.93;;
45326;SDS011;31062;49.678;24.560;2022-07-21T15:04:13;2.67;;;0.80;;
45326;SDS011;31062;49.678;24.560;2022-07-21T15:06:58;0.80;;;0.80;;
45326;SDS011;31062;49.678;24.560;2022-07-21T15:09:44;4.50;;;0.80;;
45326;SDS011;31062;49.678;24.560;2022-07-21T15:12:29;1.05;;;0.73;;
45326;SDS011;31062;49.678;24.560;2022-07-21T15:15:15;2.42;;;0.90;;
45326;SDS011;31062;49.678;24.560;2022-07-21T15:18:01;4.60;;;0.70;;
45326;SDS011;31062;49.678;24.560;2022-07-21T15:20:46;3.85;;;1.63;;
45326;SDS011;31062;49.678;24.560;2022-07-21T15:23:33;1.02;;;0.90;;
45326;SDS011;31062;49.678;24.560;2022-07-21T15:26:18;1.25;;;0.70;;
45326;SDS011;31062;49.678;24.560;2022-07-21T15:29:04;9.73;;;1.33;;
45326;SDS011;31062;49.678;24.560;2022-07-21T15:31:49;5.97;;;1.00;;
45326;SDS011;31062;49.678;24.560;2022-07-21T15:34:35;2.28;;;0.73;;
45326;SDS011;31062;49.678;24.560;2022-07-21T15:37:20;2.92;;;1.00;;
45326;SDS011;31062;49.678;24.560;2022-07-21T15:40:06;0.63;;;0.63;;
45326;SDS011;31062;49.678;24.560;2022-07-21T15:42:54;2.67;;;0.73;;
45326;SDS011;31062;49.678;24.560;2022-07-21T15:45:39;2.53;;;0.80;;
45326;SDS011;31062;49.678;24.560;2022-07-21T15:48:26;1.95;;;0.98;;
45326;SDS011;31062;49.678;24.560;2022-07-21T15:51:11;2.53;;;0.93;;
45326;SDS011;31062;49.678;24.560;2022-07-21T15:53:57;2.42;;;0.80;;
45326;SDS011;31062;49.678;24.560;2022-07-21T15:56:42;1.02;;;0.73;;
45326;SDS011;31062;49.678;24.560;2022-07-21T15:59:27;2.22;;;0.85;;
45326;SDS011;31062;49.678;24.560;2022-07-21T16:02:19;2.83;;;0.80;;
45326;SDS011;31062;49.678;24.560;2022-07-21T16:05:05;2.15;;;0.90;;
45326;SDS011;31062;49.678;24.560;2022-07-21T16:07:52;3.15;;;0.85;;
45326;SDS011;31062;49.678;24.560;2022-07-21T16:10:44;2.25;;;1.08;;
45326;SDS011;31062;49.678;24.560;2022-07-21T16:13:29;1.55;;;0.80;;
45326;SDS011;31062;49.678;24.560;2022-07-21T16:16:15;3.17;;;2.10;;
45326;SDS011;31062;49.678;24.560;2022-07-21T16:19:01;1.08;;;0.90;;
45326;SDS011;31062;49.678;24.560;2022-07-21T16:21:48;1.58;;;1.05;;
45326;SDS011;31062;49.678;24.560;2022-07-21T16:24:35;6.97;;;1.30;;
45326;SDS011;31062;49.678;24.560;2022-07-21T16:27:21;1.05;;;0.80;;
45326;SDS011;31062;49.678;24.560;2022-07-21T16:30:07;2.33;;;1.40;;
45326;SDS011;31062;49.678;24.560;2022-07-21T16:32:53;1.05;;;1.02;;
45326;SDS011;31062;49.678;24.560;2022-07-21T16:35:38;2.55;;;1.30;;
45326;SDS011;31062;49.678;24.560;2022-07-21T16:38:24;1.58;;;1.05;;
45326;SDS011;31062;49.678;24.560;2022-07-21T16:41:09;0.73;;;0.73;;
45326;SDS011;31062;49.678;24.560;2022-07-21T16:43:55;1.20;;;1.10;;
45326;SDS011;31062;49.678;24.560;2022-07-21T16:46:42;0.80;;;0.80;;
45326;SDS011;31062;49.678;24.560;2022-07-21T16:49:28;0.75;;;0.75;;